Station Historical Data
Daily Summary for April 18, 2017 Units:  Metric    English   Both
« Previous Day
Next Day »
Daily Weekly Monthly Yearly Custom
  High: Low: Average:
Temperature: 27 °C 15.9 °C 20.1 °C
Dew Point: 17.8 °C 14.3 °C 15.8 °C
Humidity: 90% 52% 77%
Wind Speed: 3.2km/h 0km/h 0.3km/h
Wind Gust: 8km/h - -
Wind- - West
Pressure: 1024.3 hPa 1018.8 hPa -
Precipitation: 0 mm    
Historical Graphs
 
 
Tabular Data for April 18, 2017
Time Temperature Dew Point Pressure Wind Wind Speed Wind Gust Humidity Rainfall Rate (Hourly) Conditions
00:00 18.4 °C 16.2 °C 1019.5 hPa Calm     87% 0 mm SCT
00:15 18.7 °C 16.3 °C 1019.9 hPa Calm   1.6 km/h 86% 0 mm SCT
00:30 18.6 °C 16.1 °C 1019.5 hPa Calm   1.6 km/h 85% 0 mm SCT
00:45 18.6 °C 16 °C 1019.5 hPa Calm     85% 0 mm SCT
01:00 18.4 °C 15.8 °C 1019.5 hPa Calm     85% 0 mm SCT
01:15 18.2 °C 15.7 °C 1019.9 hPa Calm     85% 0 mm SCT
01:30 18.1 °C 15.7 °C 1019.5 hPa Calm     86% 0 mm SCT
01:45 18 °C 15.6 °C 1019.5 hPa Calm     86% 0 mm SCT
02:00 17.7 °C 15.4 °C 1019.5 hPa Calm     86% 0 mm SCT
02:15 17.4 °C 15.1 °C 1019.5 hPa Calm   1.6 km/h 86% 0 mm SCT
02:30 17.2 °C 15 °C 1019.2 hPa Calm     87% 0 mm SCT
02:45 16.9 °C 14.8 °C 1019.2 hPa Calm     87% 0 mm SCT
03:00 16.8 °C 14.8 °C 1018.8 hPa Calm     88% 0 mm SCT
03:15 16.6 °C 14.6 °C 1018.8 hPa Calm     88% 0 mm SCT
03:30 16.4 °C 14.4 °C 1018.8 hPa Calm     88% 0 mm SCT
03:45 15.9 °C 14.3 °C 1018.8 hPa Calm     90% 0 mm SCT
04:00 15.9 °C 14.3 °C 1019.2 hPa Calm     90% 0 mm SCT
04:15 15.9 °C 14.3 °C 1019.2 hPa Calm     90% 0 mm SCT
04:30 15.9 °C 14.3 °C 1019.2 hPa Calm     90% 0 mm SCT
04:45 15.9 °C 14.3 °C 1019.5 hPa Calm     90% 0 mm SCT
05:00 15.9 °C 14.3 °C 1019.9 hPa Calm     90% 0 mm SCT
05:15 15.9 °C 14.3 °C 1019.9 hPa Calm     90% 0 mm SCT
05:30 15.9 °C 14.3 °C 1019.9 hPa Calm     90% 0 mm SCT
05:45 15.9 °C 14.3 °C 1019.9 hPa Calm     90% 0 mm SCT
06:00 15.9 °C 14.3 °C 1019.9 hPa Calm     90% 0 mm SCT
06:15 15.9 °C 14.3 °C 1019.9 hPa Calm     90% 0 mm SCT
06:30 15.9 °C 14.3 °C 1020.2 hPa Calm     90% 0 mm SCT
06:45 15.9 °C 14.3 °C 1020.2 hPa Calm     90% 0 mm SCT
07:00 15.9 °C 14.3 °C 1020.5 hPa Calm     90% 0 mm SCT
07:15 15.9 °C 14.3 °C 1020.5 hPa Calm     90% 0 mm SCT
07:30 15.9 °C 14.3 °C 1020.9 hPa Calm     90% 0 mm SCT
07:45 15.9 °C 14.3 °C 1021.2 hPa Calm     90% 0 mm SCT
08:00 15.9 °C 14.3 °C 1021.6 hPa Calm     90% 0 mm SCT
08:15 15.9 °C 14.3 °C 1021.6 hPa Calm     90% 0 mm SCT
08:30 15.9 °C 14.3 °C 1021.6 hPa Calm     90% 0 mm SCT
08:45 17.2 °C 15.4 °C 1021.9 hPa Calm     89% 0 mm SCT
09:00 17.7 °C 15.4 °C 1021.9 hPa Calm     87% 0 mm SCT
09:15 18.2 °C 16 °C 1021.9 hPa Calm     87% 0 mm SCT
09:30 18.6 °C 16.1 °C 1021.9 hPa Calm     85% 0 mm SCT
09:45 19.2 °C 16.2 °C 1022.2 hPa Calm     83% 0 mm SCT
10:00 20.2 °C 16.2 °C 1022.2 hPa Calm     78% 0 mm SCT
10:15 21.7 °C 16.6 °C 1021.9 hPa Calm   1.6 km/h 73% 0 mm SCT
10:30 21.5 °C 16.2 °C 1022.2 hPa Calm   4.8 km/h 72% 0 mm SCT
10:45 21.7 °C 16.4 °C 1022.2 hPa Calm   4.8 km/h 72% 0 mm SCT
11:00 22.4 °C 16.4 °C 1022.2 hPa WNW 1.6 km/h 4.8 km/h 69% 0 mm SCT
11:15 23.5 °C 17 °C 1022.2 hPa Calm   1.6 km/h 67% 0 mm SCT
11:30 24.4 °C 17.2 °C 1022.2 hPa Calm   3.2 km/h 64% 0 mm SCT
11:45 24.6 °C 16.8 °C 1022.6 hPa Calm   4.8 km/h 62% 0 mm SCT
12:00 25.1 °C 17 °C 1022.2 hPa Calm   4.8 km/h 61% 0 mm SCT
12:15 25.8 °C 16.9 °C 1022.2 hPa Calm   4.8 km/h 58% 0 mm SCT
12:30 26.2 °C 16.7 °C 1022.2 hPa Calm   4.8 km/h 56% 0 mm SCT
12:45 26.5 °C 17.3 °C 1022.2 hPa NE 1.6 km/h 4.8 km/h 57% 0 mm SCT
13:00 27 °C 16.3 °C 1021.9 hPa Calm   3.2 km/h 52% 0 mm SCT
13:15 25.6 °C 15.9 °C 1021.9 hPa Calm     55% 0 mm SCT
13:30 24.8 °C 16.6 °C 1021.9 hPa Calm     60% 0 mm SCT
13:45 23.9 °C 16.2 °C 1021.9 hPa Calm     62% 0 mm SCT
14:00 23.3 °C 17.6 °C 1021.6 hPa Calm     70% 0 mm SCT
14:15 23.2 °C 17.2 °C 1021.6 hPa Calm   1.6 km/h 69% 0 mm SCT
14:30 22.8 °C 16.8 °C 1021.6 hPa Calm   3.2 km/h 69% 0 mm SCT
14:45 23.4 °C 17.8 °C 1021.2 hPa Calm   1.6 km/h 71% 0 mm SCT
15:00 23.8 °C 17.1 °C 1021.2 hPa Calm   3.2 km/h 66% 0 mm SCT
15:15 23.8 °C 16.9 °C 1021.2 hPa WNW 3.2 km/h 8 km/h 65% 0 mm SCT
15:30 23.6 °C 16.8 °C 1021.2 hPa Calm   3.2 km/h 66% 0 mm SCT
15:45 23.3 °C 17.1 °C 1020.9 hPa Calm   4.8 km/h 68% 0 mm SCT
16:00 24.4 °C 17.1 °C 1020.9 hPa Calm   4.8 km/h 64% 0 mm SCT
16:15 24.5 °C 17 °C 1020.5 hPa Calm   4.8 km/h 63% 0 mm SCT
16:30 24.3 °C 17 °C 1020.5 hPa West 1.6 km/h 8 km/h 64% 0 mm SCT
16:45 24.4 °C 17.4 °C 1020.2 hPa Calm   4.8 km/h 65% 0 mm SCT
17:00 24.1 °C 17.1 °C 1019.9 hPa West 1.6 km/h 8 km/h 65% 0 mm SCT
17:15 23.9 °C 17.1 °C 1020.2 hPa West 1.6 km/h 8 km/h 66% 0 mm SCT
17:30 23.8 °C 16.6 °C 1020.2 hPa WNW 1.6 km/h 4.8 km/h 64% 0 mm SCT
17:45 23.6 °C 16.8 °C 1020.2 hPa Calm   1.6 km/h 66% 0 mm SCT
18:00 23.4 °C 17.2 °C 1020.2 hPa Calm   3.2 km/h 68% 0 mm SCT
18:15 23.2 °C 16.9 °C 1020.5 hPa Calm   3.2 km/h 68% 0 mm SCT
18:30 23 °C 17 °C 1020.5 hPa Calm   8 km/h 69% 0 mm SCT
18:45 22.9 °C 16.7 °C 1020.9 hPa Calm   3.2 km/h 68% 0 mm SCT
19:00 22.6 °C 16.6 °C 1020.9 hPa West 1.6 km/h 3.2 km/h 69% 0 mm SCT
19:15 22.3 °C 16.8 °C 1021.2 hPa Calm   8 km/h 71% 0 mm SCT
19:30 22.2 °C 16.9 °C 1021.6 hPa Calm   4.8 km/h 72% 0 mm SCT
19:45 21.8 °C 16.5 °C 1021.6 hPa WNW 1.6 km/h 8 km/h 72% 0 mm SCT
20:00 21.2 °C 16.2 °C 1021.6 hPa West 1.6 km/h 8 km/h 73% 0 mm SCT
20:15 20.7 °C 15.9 °C 1021.9 hPa Calm   4.8 km/h 74% 0 mm SCT
20:30 20.3 °C 15.8 °C 1021.9 hPa Calm   3.2 km/h 75% 0 mm SCT
20:45 20.1 °C 15.6 °C 1021.9 hPa WNW 3.2 km/h 4.8 km/h 75% 0 mm SCT
21:00 19.9 °C 15.6 °C 1022.2 hPa Calm   1.6 km/h 76% 0 mm SCT
21:15 19.7 °C 15.4 °C 1022.2 hPa WNW 1.6 km/h 4.8 km/h 76% 0 mm SCT
21:30 19.5 °C 15.2 °C 1022.6 hPa Calm   4.8 km/h 76% 0 mm SCT
21:45 19.3 °C 15.2 °C 1022.6 hPa Calm   8 km/h 77% 0 mm SCT
22:00 19.2 °C 15.3 °C 1022.9 hPa Calm   1.6 km/h 78% 0 mm SCT
22:15 19.2 °C 15.3 °C 1023.2 hPa Calm   4.8 km/h 78% 0 mm SCT
22:30 19.1 °C 15.1 °C 1023.6 hPa West 1.6 km/h 3.2 km/h 78% 0 mm SCT
22:45 18.9 °C 14.8 °C 1023.6 hPa West 1.6 km/h 3.2 km/h 77% 0 mm SCT
23:00 18.7 °C 14.8 °C 1023.9 hPa WNW 1.6 km/h 3.2 km/h 78% 0 mm SCT
23:15 18.6 °C 14.7 °C 1023.9 hPa WNW 1.6 km/h 4.8 km/h 78% 0 mm SCT
23:30 18.4 °C 14.7 °C 1024.3 hPa Calm   3.2 km/h 79% 0 mm SCT
23:45 18.3 °C 14.8 °C 1024.3 hPa West 1.6 km/h 8 km/h 80% 0 mm SCT
Piedmont Bend
Compliments of Weather Underground - 4 mb